createdAt,value
2022-09-04T00:03:05.615Z,5.7
2022-09-04T00:08:08.177Z,5
2022-09-04T00:13:10.479Z,5.2
2022-09-04T00:18:12.987Z,5
2022-09-04T00:23:15.485Z,6
2022-09-04T00:28:19.086Z,6.9
2022-09-04T00:33:21.942Z,7
2022-09-04T00:38:24.943Z,6.6
2022-09-04T00:43:27.643Z,5.3
2022-09-04T00:48:30.058Z,6.6
2022-09-04T00:53:32.497Z,5.5
2022-09-04T00:58:34.995Z,6.1
2022-09-04T01:03:37.667Z,6.2
2022-09-04T01:08:42.064Z,6.8
2022-09-04T01:13:44.957Z,7.2
2022-09-04T01:18:47.704Z,9
2022-09-04T01:23:50.217Z,6.8
2022-09-04T01:28:53.180Z,9.7
2022-09-04T01:33:55.825Z,7.8
2022-09-04T01:38:58.447Z,8.1
2022-09-04T01:44:00.841Z,8.4
2022-09-04T01:49:03.167Z,12.3
2022-09-04T01:54:05.463Z,10.8
2022-09-04T01:59:07.754Z,10.4
2022-09-04T02:04:12.719Z,11.4
2022-09-04T02:09:15.352Z,10.1
2022-09-04T02:14:17.756Z,10
2022-09-04T02:19:20.321Z,9.9
2022-09-04T02:24:22.677Z,10.5
2022-09-04T02:29:25.664Z,9.8
2022-09-04T02:34:32.861Z,10.4
2022-09-04T02:39:36.780Z,9.2
2022-09-04T02:44:39.462Z,11.4
2022-09-04T02:49:41.940Z,10.8
2022-09-04T02:54:44.603Z,12.1
2022-09-04T02:59:47.369Z,11.5
2022-09-04T03:04:49.620Z,11.6
2022-09-04T03:09:54.150Z,11.4
2022-09-04T03:14:56.587Z,11.4
2022-09-04T03:19:58.866Z,11.2
2022-09-04T03:25:02.841Z,12.3
2022-09-04T03:30:05.408Z,12.2
2022-09-04T03:35:07.818Z,13
2022-09-04T03:40:10.743Z,11.9
2022-09-04T03:45:13.143Z,12.9
2022-09-04T03:50:15.413Z,12.4
2022-09-04T03:55:17.940Z,13.3
2022-09-04T04:00:20.240Z,16.7
2022-09-04T04:05:22.803Z,17.2
2022-09-04T04:10:25.976Z,17.9
2022-09-04T04:15:28.679Z,15.6
2022-09-04T04:20:31.290Z,16.6
2022-09-04T04:25:33.683Z,13.7
2022-09-04T04:30:36.000Z,16.1
2022-09-04T04:35:39.341Z,13.9
2022-09-04T04:40:42.200Z,12.7
2022-09-04T04:45:45.050Z,18.7
2022-09-04T04:50:47.811Z,19.1
2022-09-04T04:55:50.494Z,9.4
2022-09-04T05:00:53.553Z,8.1
2022-09-04T05:05:56.598Z,8.2
2022-09-04T05:10:59.208Z,7.9
2022-09-04T05:16:10.003Z,8.5
2022-09-04T05:21:11.001Z,9.4
2022-09-04T05:26:13.456Z,7.4
2022-09-04T05:31:16.044Z,7.4
2022-09-04T05:36:18.928Z,6.3
2022-09-04T05:41:22.984Z,7.6
2022-09-04T05:46:25.353Z,5.5
2022-09-04T05:51:28.321Z,6.4
2022-09-04T05:56:36.238Z,7.7
2022-09-04T06:01:38.971Z,6.7
2022-09-04T06:06:42.183Z,5.7
2022-09-04T06:11:44.663Z,5.8
2022-09-04T06:16:47.034Z,4.1
2022-09-04T06:21:49.326Z,3.8
2022-09-04T06:26:51.940Z,4.5
2022-09-04T06:31:54.234Z,4.3
2022-09-04T06:36:56.531Z,3.4
2022-09-04T06:41:59.334Z,4.1
2022-09-04T06:47:02.095Z,3.2
2022-09-04T06:52:04.657Z,3.7
2022-09-04T06:57:07.323Z,3.4
2022-09-04T07:02:10.124Z,5.6
2022-09-04T07:07:13.176Z,5.1
2022-09-04T07:12:18.472Z,3.3
2022-09-04T07:17:22.747Z,3.9
2022-09-04T07:22:25.870Z,3.1
2022-09-04T07:27:28.404Z,4.5
2022-09-04T07:32:30.972Z,5.1
2022-09-04T07:37:33.280Z,2
2022-09-04T07:42:35.989Z,2.8
2022-09-04T07:47:38.335Z,3.1
2022-09-04T07:52:41.081Z,2.3
2022-09-04T07:57:43.626Z,2.8
2022-09-04T08:02:45.871Z,2.5
2022-09-04T08:07:48.236Z,1.8
2022-09-04T08:12:50.899Z,2
2022-09-04T08:17:55.601Z,1.6
2022-09-04T08:22:58.348Z,1.3
2022-09-04T08:28:01.294Z,1.3
2022-09-04T08:33:03.632Z,1.3
2022-09-04T08:38:05.947Z,5.1
2022-09-04T08:43:08.353Z,1.9
2022-09-04T08:48:11.677Z,1.6
2022-09-04T08:53:16.955Z,1.1
2022-09-04T08:58:19.322Z,1.3
2022-09-04T09:03:22.205Z,1.6
2022-09-04T09:08:28.572Z,2
2022-09-04T09:13:34.366Z,1.7
2022-09-04T09:18:36.899Z,6
2022-09-04T09:23:43.573Z,1.4
2022-09-04T09:28:46.178Z,3.1
2022-09-04T09:33:48.569Z,1.5
2022-09-04T09:38:51.224Z,3.2
2022-09-04T09:43:53.763Z,2.6
2022-09-04T09:48:56.352Z,1.5
2022-09-04T09:53:59.247Z,2.5
2022-09-04T09:59:01.981Z,2.6
2022-09-04T10:04:04.729Z,2
2022-09-04T10:09:09.330Z,1.5
2022-09-04T10:14:12.204Z,2.2
2022-09-04T10:19:14.691Z,1.7
2022-09-04T10:24:17.453Z,1.3
2022-09-04T10:29:19.970Z,2.7
2022-09-04T10:34:23.123Z,2.2
2022-09-04T10:39:25.450Z,1.6
2022-09-04T10:44:29.974Z,1.5
2022-09-04T10:49:32.550Z,2.4
2022-09-04T10:54:35.103Z,2.2
2022-09-04T10:59:37.615Z,1.7
2022-09-04T11:04:41.332Z,1.9
2022-09-04T11:09:47.379Z,1.8
2022-09-04T11:14:50.798Z,1.4
2022-09-04T11:19:53.408Z,2.8
2022-09-04T11:24:56.364Z,2.3
2022-09-04T11:30:01.225Z,2
2022-09-04T11:35:04.709Z,4.2
2022-09-04T11:40:07.320Z,3.7
2022-09-04T11:45:11.623Z,3.6
2022-09-04T11:50:14.343Z,3.6
2022-09-04T11:55:17.144Z,3.1
2022-09-04T12:00:19.978Z,2.2
2022-09-04T12:05:22.524Z,2.3
2022-09-04T12:10:25.254Z,1.4
2022-09-04T12:15:28.201Z,4.6
2022-09-04T12:20:33.167Z,2.7
2022-09-04T12:25:35.679Z,2.2
2022-09-04T12:30:37.991Z,1.9
2022-09-04T12:35:40.294Z,2.8
2022-09-04T12:40:43.064Z,1.5
2022-09-04T12:45:45.992Z,2.1
2022-09-04T12:50:48.997Z,2.1
2022-09-04T12:55:53.419Z,2.1
2022-09-04T13:00:57.366Z,2.2
2022-09-04T13:05:58.364Z,2.1
2022-09-04T13:11:00.994Z,2
2022-09-04T13:16:07.955Z,2.1
2022-09-04T13:21:13.065Z,1.6
2022-09-04T13:26:16.617Z,3.1
2022-09-04T13:31:21.072Z,2.2
2022-09-04T13:36:23.976Z,2.7
2022-09-04T13:41:30.340Z,1.9
2022-09-04T13:46:33.441Z,2.4
2022-09-04T13:51:36.208Z,2
2022-09-04T13:56:38.924Z,1.8
2022-09-04T14:01:41.864Z,2.1
2022-09-04T14:06:44.546Z,1.7
2022-09-04T14:11:47.368Z,2
2022-09-04T14:16:49.962Z,1.7
2022-09-04T14:21:53.503Z,2.5
2022-09-04T14:26:56.473Z,2.3
2022-09-04T14:31:59.369Z,2.6
2022-09-04T14:37:03.881Z,1.8
2022-09-04T14:42:06.609Z,1.6
2022-09-04T14:47:09.315Z,1.8
2022-09-04T14:52:12.324Z,18.7
2022-09-04T14:57:15.290Z,3.5
2022-09-04T15:02:17.637Z,3
2022-09-04T15:07:20.974Z,2.7
2022-09-04T15:12:25.222Z,1.8
2022-09-04T15:17:24.977Z,1.8
2022-09-04T15:22:28.802Z,2.9
2022-09-04T15:27:31.710Z,2
2022-09-04T15:32:34.194Z,3.4
2022-09-04T15:37:37.254Z,13.5
2022-09-04T15:42:41.382Z,3.3
2022-09-04T15:47:45.550Z,3.3
2022-09-04T15:52:48.200Z,9.7
2022-09-04T15:57:52.439Z,4.5
2022-09-04T16:02:55.070Z,2.8
2022-09-04T16:07:58.069Z,3.1
2022-09-04T16:12:58.401Z,4.3
2022-09-04T16:18:01.375Z,3.7
2022-09-04T16:23:04.276Z,4.7
2022-09-04T16:28:08.113Z,4.1
2022-09-04T16:33:25.262Z,2.7
2022-09-04T16:38:24.018Z,5.7
2022-09-04T16:43:28.949Z,3.9
2022-09-04T16:48:38.569Z,6.1
2022-09-04T16:53:41.370Z,3.7
2022-09-04T16:58:44.431Z,4.5
2022-09-04T17:03:47.094Z,7.3
2022-09-04T17:08:54.587Z,4.6
2022-09-04T17:14:08.489Z,4.1
2022-09-04T17:19:03.113Z,9.7
2022-09-04T17:28:04.882Z,6.1
2022-09-04T17:39:27.561Z,4.9
2022-09-04T17:48:25.134Z,4.6
2022-09-04T17:53:33.926Z,4.3
2022-09-04T17:58:31.032Z,4
2022-09-04T18:03:37.991Z,6.6
2022-09-04T18:08:50.427Z,5.2
2022-09-04T18:13:47.667Z,10.7
2022-09-04T18:18:50.527Z,6.3
2022-09-04T18:23:53.508Z,4.5
2022-09-04T18:28:58.946Z,5.9
2022-09-04T18:47:58.189Z,8
2022-09-04T18:57:39.703Z,4.9
2022-09-04T19:02:53.649Z,4.9
2022-09-04T19:07:56.527Z,5.4
2022-09-04T19:12:59.149Z,4.7
2022-09-04T19:18:01.622Z,5.3
2022-09-04T19:23:15.258Z,4.5
2022-09-04T19:28:09.036Z,3.6
2022-09-04T19:33:11.675Z,3.2
2022-09-04T19:40:34.625Z,2.8
2022-09-04T19:53:20.609Z,4.5
2022-09-04T19:58:01.950Z,9.5
2022-09-04T20:03:05.415Z,4.6
2022-09-04T20:08:07.999Z,5
2022-09-04T20:13:10.430Z,6.3
2022-09-04T20:18:13.126Z,6
2022-09-04T20:23:34.696Z,4.7
2022-09-04T20:28:18.171Z,5.1
2022-09-04T20:33:20.655Z,6.6
2022-09-04T20:38:23.912Z,7.6
2022-09-04T20:43:26.631Z,4.6
2022-09-04T20:52:47.230Z,3.2
2022-09-04T21:01:59.111Z,3.3
2022-09-04T21:09:49.556Z,3.2
2022-09-04T21:14:47.951Z,3.3
2022-09-04T21:19:50.536Z,3.6
2022-09-04T21:24:53.527Z,3.4
2022-09-04T21:29:56.245Z,3.6
2022-09-04T21:34:59.852Z,3
2022-09-04T21:40:02.662Z,2.9
2022-09-04T21:45:09.680Z,3
2022-09-04T21:50:12.578Z,3.7
2022-09-04T21:56:53.459Z,3
2022-09-04T22:12:07.746Z,3.5
2022-09-04T22:20:03.865Z,2.6
2022-09-04T22:25:06.279Z,2.3
2022-09-04T22:30:08.684Z,2.7
2022-09-04T22:35:11.878Z,3.1
2022-09-04T22:40:14.248Z,4.3
2022-09-04T22:45:17.108Z,3
2022-09-04T22:50:19.634Z,3.8
2022-09-04T22:55:38.787Z,2.7
2022-09-04T23:00:26.094Z,3.4
2022-09-04T23:05:28.591Z,3
2022-09-04T23:13:45.630Z,3.3
2022-09-04T23:15:39.431Z,3.5
2022-09-04T23:23:13.903Z,2.6
2022-09-04T23:33:25.072Z,3.5
2022-09-04T23:38:21.228Z,3.4
2022-09-04T23:43:24.065Z,3
2022-09-04T23:48:27.235Z,3.9
2022-09-04T23:53:30.027Z,3.2
2022-09-04T23:58:33.868Z,3
